Time;durP1;ratioP1;P1;durP2;ratioP2;P2;SDS_P1;SDS_P2;PMS_P1;PMS_P2;Temp;Humidity;BMP_temperature;BMP_pressure;BME280_temperature;BME280_humidity;BME280_pressure;Samples;Min_cycle;Max_cycle;Signal;HPM_P1;HPM_P2
2022/12/15 02:20:07;;;;;;;21.48;7.22;;;;;;;-3.22;100.00;100958.72;1853476;76;29365;-86
2022/12/15 02:23:32;;;;;;;12.80;5.83;;;;;;;-3.18;100.00;100972.06;1818779;78;21013;-86
2022/12/15 02:26:54;;;;;;;14.45;5.83;;;;;;;-3.15;100.00;100955.66;1818584;78;21529;-86
2022/12/15 02:30:12;;;;;;;14.38;6.70;;;;;;;-3.12;100.00;100935.77;1786511;80;21028;-88
2022/12/15 02:33:18;;;;;;;13.38;5.35;;;;;;;-3.07;100.00;100948.92;1786530;79;20997;-86
2022/12/15 02:36:17;;;;;;;14.50;6.15;;;;;;;-3.00;100.00;100945.03;1786551;80;21016;-85
2022/12/15 02:39:01;;;;;;;13.25;5.53;;;;;;;-2.95;100.00;100929.28;1786476;79;21056;-86
2022/12/15 02:41:46;;;;;;;11.78;5.47;;;;;;;-2.95;100.00;100922.60;1786541;80;20997;-86
2022/12/15 02:44:44;;;;;;;16.27;5.92;;;;;;;-2.91;100.00;100919.08;1786465;79;21037;-86
2022/12/15 02:47:59;;;;;;;10.95;4.70;;;;;;;-2.90;100.00;100922.89;1760626;79;21001;-86
2022/12/15 02:51:01;;;;;;;8.98;4.30;;;;;;;-2.86;100.00;100915.36;1786758;80;21060;-85
2022/12/15 02:54:26;;;;;;;16.65;5.22;;;;;;;-2.85;100.00;100915.67;1798111;78;20993;-86
2022/12/15 02:57:34;;;;;;;15.48;4.50;;;;;;;-2.88;100.00;100914.70;1818782;78;21489;-87
2022/12/15 03:00:20;;;;;;;11.85;5.28;;;;;;;-2.85;100.00;100921.02;1816681;78;21036;-88
2022/12/15 03:03:05;;;;;;;9.25;4.62;;;;;;;-2.88;100.00;100927.56;1812267;78;21036;-88
2022/12/15 03:05:53;;;;;;;15.05;4.90;;;;;;;-2.85;100.00;100927.19;1818582;78;20997;-88
2022/12/15 03:08:36;;;;;;;14.85;4.85;;;;;;;-2.82;100.00;100924.66;1819088;78;21009;-89
2022/12/15 03:11:21;;;;;;;16.23;5.70;;;;;;;-2.81;100.00;100927.69;1787967;78;21016;-88
2022/12/15 03:14:06;;;;;;;7.12;4.10;;;;;;;-2.72;100.00;100934.63;1786370;79;21008;-88
2022/12/15 03:16:52;;;;;;;11.97;4.72;;;;;;;-2.70;100.00;100937.94;1795028;78;21486;-89
2022/12/15 03:19:36;;;;;;;13.62;5.53;;;;;;;-2.59;100.00;100935.36;1800178;78;21447;-87
2022/12/15 03:22:21;;;;;;;13.28;6.05;;;;;;;-2.58;100.00;100937.52;1785984;80;21037;-86
2022/12/15 03:25:06;;;;;;;14.28;4.95;;;;;;;-2.54;100.00;100934.30;1803774;78;21655;-86
2022/12/15 03:27:51;;;;;;;11.28;5.03;;;;;;;-2.50;100.00;100936.09;1818777;78;21028;-86
2022/12/15 03:30:35;;;;;;;12.40;5.20;;;;;;;-2.48;100.00;100940.77;1818317;78;21012;-88
2022/12/15 03:33:20;;;;;;;9.68;4.58;;;;;;;-2.45;100.00;100932.36;1818400;78;20989;-88
2022/12/15 03:36:05;;;;;;;11.18;4.53;;;;;;;-2.43;100.00;100933.84;1818192;78;21052;-88
2022/12/15 03:38:50;;;;;;;8.13;4.20;;;;;;;-2.39;100.00;100926.30;1818447;78;21056;-86
2022/12/15 03:41:36;;;;;;;11.57;4.60;;;;;;;-2.37;100.00;100921.59;1818367;78;21001;-89
2022/12/15 03:44:21;;;;;;;14.63;4.28;;;;;;;-2.35;100.00;100918.20;1818339;78;21032;-88
2022/12/15 03:47:05;;;;;;;10.93;4.58;;;;;;;-2.33;100.00;100917.52;1818182;78;21036;-86
2022/12/15 03:49:49;;;;;;;8.30;4.00;;;;;;;-2.31;100.00;100906.64;1818385;78;20997;-88
2022/12/15 03:52:34;;;;;;;16.30;5.22;;;;;;;-2.24;100.00;100892.84;1818148;78;21498;-88
2022/12/15 03:55:21;;;;;;;10.00;5.25;;;;;;;-2.23;100.00;100882.45;1818156;78;20985;-88
2022/12/15 03:58:06;;;;;;;12.43;5.58;;;;;;;-2.22;100.00;100876.92;1818200;78;21067;-89
2022/12/15 04:00:50;;;;;;;16.50;5.22;;;;;;;-2.21;100.00;100883.92;1815091;78;21020;-89
2022/12/15 04:03:35;;;;;;;11.60;5.35;;;;;;;-2.20;100.00;100882.92;1736247;81;21041;-88
2022/12/15 04:06:19;;;;;;;13.45;5.40;;;;;;;-2.19;100.00;100870.36;1755078;81;21466;-88
2022/12/15 04:09:04;;;;;;;14.10;5.58;;;;;;;-2.17;100.00;100863.80;1744199;81;21064;-89
2022/12/15 04:11:48;;;;;;;16.77;5.85;;;;;;;-2.10;100.00;100865.72;1724796;82;21077;-89
2022/12/15 04:14:33;;;;;;;14.68;5.37;;;;;;;-2.07;100.00;100874.75;1722382;81;21039;-86
2022/12/15 04:17:19;;;;;;;14.43;5.55;;;;;;;-2.06;100.00;100869.19;1738604;81;21041;-86
2022/12/15 04:20:08;;;;;;;14.40;5.67;;;;;;;-2.03;100.00;100873.34;1740055;80;20969;-88
2022/12/15 04:22:53;;;;;;;17.32;5.72;;;;;;;-2.03;100.00;100866.64;1735755;80;21016;-88
2022/12/15 05:32:54;;;;;;;15.20;6.42;;;;;;;-1.79;100.00;100798.53;1752046;81;21048;-86
2022/12/15 05:35:38;;;;;;;14.65;6.80;;;;;;;-1.78;100.00;100796.16;1751425;78;21026;-86
2022/12/15 05:38:23;;;;;;;17.23;7.58;;;;;;;-1.77;100.00;100798.66;1744218;81;21009;-86
2022/12/15 05:41:07;;;;;;;16.35;6.42;;;;;;;-1.75;100.00;100806.00;1733031;81;21020;-85
2022/12/15 05:43:52;;;;;;;18.23;6.28;;;;;;;-1.77;100.00;100806.70;1743883;81;21009;-86
2022/12/15 05:46:37;;;;;;;18.42;6.72;;;;;;;-1.76;100.00;100798.97;1733323;81;21056;-86
2022/12/15 05:49:22;;;;;;;12.53;5.87;;;;;;;-1.76;100.00;100794.13;1743051;81;20989;-86
2022/12/15 05:52:07;;;;;;;16.62;6.42;;;;;;;-1.77;100.00;100787.12;1733618;82;21001;-88
2022/12/15 05:54:52;;;;;;;19.60;6.15;;;;;;;-1.76;100.00;100790.92;1751067;81;21053;-86
2022/12/15 05:57:36;;;;;;;14.78;5.90;;;;;;;-1.76;100.00;100782.06;1745832;81;20985;-86
2022/12/15 08:07:54;;;;;;;22.37;8.00;;;;;;;-1.74;100.00;100668.33;1830097;77;28902;-84
2022/12/15 08:10:38;;;;;;;26.65;8.95;;;;;;;-1.70;100.00;100676.00;1735324;81;21026;-85
2022/12/15 08:13:23;;;;;;;24.82;8.48;;;;;;;-1.60;100.00;100670.61;1734195;82;21017;-84
2022/12/15 08:16:07;;;;;;;21.60;6.83;;;;;;;-1.47;100.00;100674.42;1724991;82;21120;-85
2022/12/15 08:18:52;;;;;;;12.13;6.30;;;;;;;-1.36;100.00;100670.70;1711390;82;21085;-85
2022/12/15 08:21:40;;;;;;;9.20;4.33;;;;;;;-1.25;100.00;100673.86;1723867;82;21012;-85
2022/12/15 08:24:24;;;;;;;8.80;4.92;;;;;;;-1.17;100.00;100675.03;1726034;82;21096;-85
2022/12/15 08:27:09;;;;;;;9.15;4.60;;;;;;;-1.08;100.00;100669.84;1724905;82;21013;-85
2022/12/15 08:29:54;;;;;;;9.70;4.92;;;;;;;-0.95;100.00;100666.39;1708416;84;21029;-86
2022/12/15 08:32:39;;;;;;;9.40;4.37;;;;;;;-0.90;100.00;100662.08;1713636;82;21029;-86
2022/12/15 08:35:24;;;;;;;10.15;4.58;;;;;;;-0.85;100.00;100661.48;1731610;80;21041;-85
2022/12/15 08:38:08;;;;;;;12.35;5.50;;;;;;;-0.79;100.00;100650.46;1755768;81;21041;-85
2022/12/15 08:40:53;;;;;;;12.85;5.78;;;;;;;-0.76;100.00;100652.77;1720050;82;22199;-85
2022/12/15 08:43:38;;;;;;;8.38;4.87;;;;;;;-0.72;100.00;100645.95;1722408;82;20974;-85
2022/12/15 08:46:29;;;;;;;10.65;6.75;;;;;;;-0.69;100.00;100648.26;1710003;82;21501;-86
2022/12/15 08:49:15;;;;;;;9.95;4.60;;;;;;;-0.64;100.00;100649.83;1708914;83;21037;-87
2022/12/15 08:52:00;;;;;;;14.00;4.05;;;;;;;-0.60;100.00;100653.74;1709821;82;21033;-86
2022/12/15 08:54:45;;;;;;;11.68;4.25;;;;;;;-0.57;100.00;100645.31;1709573;82;21492;-86
2022/12/15 08:57:31;;;;;;;10.32;4.97;;;;;;;-0.53;100.00;100632.30;1716927;82;21045;-86
2022/12/15 09:00:17;;;;;;;8.43;3.90;;;;;;;-0.52;100.00;100633.94;1712272;82;21460;-86
2022/12/15 09:03:01;;;;;;;10.55;4.87;;;;;;;-0.50;100.00;100639.94;1723199;82;21500;-84
2022/12/15 09:05:47;;;;;;;9.78;4.83;;;;;;;-0.47;100.00;100639.05;1708712;82;21029;-85
2022/12/15 09:08:32;;;;;;;9.58;4.55;;;;;;;-0.46;100.00;100639.34;1713249;82;21013;-85
2022/12/15 09:11:17;;;;;;;7.92;3.90;;;;;;;-0.45;100.00;100629.42;1714432;81;21080;-84
2022/12/15 09:14:02;;;;;;;9.55;3.98;;;;;;;-0.42;100.00;100638.44;1705286;83;21041;-84
2022/12/15 09:16:47;;;;;;;8.08;4.37;;;;;;;-0.38;100.00;100642.88;1736802;82;21005;-84
2022/12/15 09:19:31;;;;;;;9.88;4.28;;;;;;;-0.37;100.00;100637.80;1735566;82;21049;-84
2022/12/15 09:22:17;;;;;;;7.55;3.87;;;;;;;-0.33;100.00;100643.91;1731713;82;21004;-84
2022/12/15 09:25:03;;;;;;;8.23;4.15;;;;;;;-0.30;100.00;100640.00;1699595;82;20994;-84
2022/12/15 09:27:47;;;;;;;12.20;5.15;;;;;;;-0.24;100.00;100637.86;1733454;82;21033;-84
2022/12/15 09:30:33;;;;;;;22.82;8.23;;;;;;;-0.18;100.00;100644.27;1721786;82;21026;-86
2022/12/15 09:33:18;;;;;;;14.87;6.30;;;;;;;-0.20;100.00;100638.27;1735323;81;21057;-84
2022/12/15 09:36:03;;;;;;;7.25;3.67;;;;;;;-0.19;100.00;100645.30;1737916;82;21045;-84
2022/12/15 09:38:48;;;;;;;10.18;4.40;;;;;;;-0.18;100.00;100639.70;1737688;82;21526;-85
2022/12/15 09:41:35;;;;;;;11.10;4.83;;;;;;;-0.17;100.00;100631.98;1733656;82;21495;-86
2022/12/15 09:44:20;;;;;;;33.15;10.38;;;;;;;-0.13;100.00;100635.89;1729851;81;21004;-85
2022/12/15 09:47:17;;;;;;;16.05;6.28;;;;;;;-0.06;100.00;100629.20;1728297;81;21534;-86
2022/12/15 09:50:07;;;;;;;7.42;3.72;;;;;;;-0.09;100.00;100629.09;1737756;82;21056;-85
2022/12/15 09:52:57;;;;;;;10.10;4.78;;;;;;;-0.05;100.00;100624.97;1711426;81;21021;-85
2022/12/15 09:55:42;;;;;;;18.20;6.42;;;;;;;-0.05;100.00;100631.69;1711223;82;21017;-85
2022/12/15 09:58:50;;;;;;;18.05;4.83;;;;;;;-0.07;100.00;100617.63;1685304;83;21034;-86
2022/12/15 10:02:03;;;;;;;9.13;3.92;;;;;;;-0.05;100.00;100619.59;1744706;81;21037;-86
2022/12/15 10:05:11;;;;;;;7.07;3.97;;;;;;;-0.03;100.00;100616.69;1728028;81;21543;-86
2022/12/15 10:07:55;;;;;;;10.05;4.33;;;;;;;-0.05;100.00;100618.26;1740365;81;21054;-85
2022/12/15 10:10:57;;;;;;;9.03;4.10;;;;;;;-0.03;100.00;100618.85;1703976;83;21094;-86
2022/12/15 10:14:07;;;;;;;13.28;4.70;;;;;;;-0.01;100.00;100623.51;1737075;81;21479;-86
2022/12/15 10:17:23;;;;;;;9.63;4.08;;;;;;;-0.01;100.00;100614.11;1752763;81;21030;-86
2022/12/15 10:20:25;;;;;;;8.95;4.00;;;;;;;0.09;100.00;100619.59;1746595;81;21075;-87
2022/12/15 10:23:13;;;;;;;11.53;5.83;;;;;;;0.11;100.00;100618.88;1724268;82;20988;-87
2022/12/15 10:26:18;;;;;;;10.98;4.12;;;;;;;0.15;100.00;100620.13;1744214;81;21006;-87
2022/12/15 10:29:32;;;;;;;11.40;5.17;;;;;;;0.12;100.00;100615.14;1712018;81;21045;-91
2022/12/15 10:32:21;;;;;;;14.25;6.25;;;;;;;0.13;100.00;100603.37;1713797;82;21049;-91
2022/12/15 10:35:16;;;;;;;10.10;4.50;;;;;;;0.18;100.00;100596.86;1739419;81;20985;-91
2022/12/15 10:38:03;;;;;;;8.10;3.90;;;;;;;0.20;100.00;100593.45;1720296;81;20995;-91
2022/12/15 10:41:07;;;;;;;8.50;3.72;;;;;;;0.20;100.00;100604.21;1722750;82;21451;-91
2022/12/15 10:43:53;;;;;;;12.18;6.33;;;;;;;0.23;100.00;100595.72;1727223;82;21498;-92
2022/12/15 10:46:37;;;;;;;9.00;4.80;;;;;;;0.28;100.00;100599.95;1745170;80;21092;-91
2022/12/15 10:49:23;;;;;;;12.82;6.50;;;;;;;0.27;100.00;100609.03;1736276;81;21054;-92
2022/12/15 10:52:35;;;;;;;30.80;15.70;;;;;;;0.26;100.00;100602.02;1753959;81;20996;-91
2022/12/15 10:55:33;;;;;;;9.25;5.65;;;;;;;0.33;100.00;100592.62;1718873;81;21004;-91
2022/12/15 10:58:21;;;;;;;10.13;5.40;;;;;;;0.39;100.00;100602.00;1732655;81;20996;-91
2022/12/15 11:01:19;;;;;;;8.58;4.08;;;;;;;0.42;100.00;100598.91;1733743;81;21167;-91
2022/12/15 11:04:03;;;;;;;10.38;5.30;;;;;;;0.52;100.00;100597.64;1713415;82;21055;-91
2022/12/15 11:06:48;;;;;;;12.93;6.35;;;;;;;0.54;100.00;100600.42;1665993;81;21120;-92
2022/12/15 11:09:35;;;;;;;12.60;5.70;;;;;;;0.51;100.00;100592.78;1684348;81;21069;-92
2022/12/15 11:15:40;;;;;;;11.33;5.80;;;;;;;0.53;100.00;100583.99;1704030;82;21062;-91
2022/12/15 11:18:45;;;;;;;11.08;5.20;;;;;;;0.53;100.00;100569.73;1711219;82;21026;-92
2022/12/15 11:21:34;;;;;;;12.73;5.28;;;;;;;0.49;100.00;100567.97;1710979;82;21537;-92
2022/12/15 11:24:37;;;;;;;11.38;5.62;;;;;;;0.52;100.00;100573.44;1729740;82;21003;-92
2022/12/15 11:27:34;;;;;;;12.82;5.05;;;;;;;0.51;100.00;100575.30;1715023;82;21017;-93
2022/12/15 11:30:21;;;;;;;11.20;5.62;;;;;;;0.46;100.00;100570.26;1695217;82;21030;-91
2022/12/15 11:33:06;;;;;;;10.65;5.62;;;;;;;0.51;100.00;100571.27;1703792;82;21025;-91
2022/12/15 11:36:25;;;;;;;13.83;5.78;;;;;;;0.53;100.00;100571.08;1713177;82;21021;-91
2022/12/15 11:39:42;;;;;;;10.88;4.22;;;;;;;0.54;100.00;100571.38;1708116;82;21014;-91
2022/12/15 11:43:04;;;;;;;10.15;5.30;;;;;;;0.54;100.00;100560.61;1717838;82;21080;-92
2022/12/15 11:46:29;;;;;;;11.03;5.08;;;;;;;0.55;100.00;100560.94;1723775;82;21085;-93
2022/12/15 11:49:49;;;;;;;11.83;5.10;;;;;;;0.53;100.00;100562.48;1710851;81;21049;-92
2022/12/15 11:52:46;;;;;;;11.55;5.47;;;;;;;0.53;100.00;100564.35;1705441;82;21092;-91
2022/12/15 11:55:51;;;;;;;11.25;5.37;;;;;;;0.48;100.00;100570.88;1721733;80;21037;-92
2022/12/15 11:59:05;;;;;;;11.63;5.72;;;;;;;0.45;100.00;100573.47;1698961;82;21054;-92
2022/12/15 14:06:41;;;;;;;17.40;6.83;;;;;;;-0.52;100.00;100633.45;1805339;77;28829;-89
2022/12/15 14:09:35;;;;;;;27.55;9.65;;;;;;;-0.54;100.00;100639.53;1777383;79;21053;-91
2022/12/15 14:12:19;;;;;;;26.20;10.65;;;;;;;-0.48;100.00;100648.11;1772490;79;21023;-91
2022/12/15 14:15:15;;;;;;;21.45;10.15;;;;;;;-0.41;100.00;100648.66;1753165;80;20988;-91
2022/12/15 14:18:01;;;;;;;18.00;7.58;;;;;;;-0.32;100.00;100644.73;1762766;79;20984;-90
2022/12/15 14:20:45;;;;;;;17.15;7.05;;;;;;;-0.29;100.00;100644.35;1768326;79;21000;-90
2022/12/15 14:23:41;;;;;;;20.25;7.15;;;;;;;-0.27;100.00;100642.30;1763967;79;20975;-91
2022/12/15 14:26:29;;;;;;;27.62;13.48;;;;;;;-0.21;100.00;100641.47;1743451;79;21497;-91
2022/12/15 14:29:13;;;;;;;22.25;11.30;;;;;;;-0.17;100.00;100637.36;1755983;79;21016;-91
2022/12/15 14:31:59;;;;;;;35.30;19.17;;;;;;;-0.16;100.00;100639.00;1737768;82;20997;-90
2022/12/15 14:34:44;;;;;;;60.40;27.42;;;;;;;-0.14;100.00;100639.63;1761009;80;21064;-90
2022/12/15 14:37:30;;;;;;;68.07;35.20;;;;;;;-0.10;100.00;100642.72;1758274;80;21030;-90
2022/12/15 14:40:16;;;;;;;17.07;9.20;;;;;;;-0.07;100.00;100640.46;1774904;79;21536;-90
2022/12/15 14:43:00;;;;;;;17.42;8.60;;;;;;;-0.04;100.00;100648.11;1774907;80;20934;-92
2022/12/15 14:45:49;;;;;;;13.32;6.67;;;;;;;-0.02;100.00;100644.70;1773461;79;21422;-91
2022/12/15 14:48:38;;;;;;;16.52;7.45;;;;;;;0.10;100.00;100654.83;1714348;82;21059;-90
2022/12/15 14:51:24;;;;;;;17.00;6.90;;;;;;;0.13;100.00;100651.75;1774125;80;21480;-90
2022/12/15 14:54:36;;;;;;;17.02;6.70;;;;;;;0.17;100.00;100660.55;1763780;80;21016;-90
2022/12/15 14:57:40;;;;;;;15.58;6.95;;;;;;;0.32;100.00;100646.05;1663473;83;21034;-91
2022/12/15 15:00:33;;;;;;;23.22;9.43;;;;;;;0.31;100.00;100646.58;1771544;79;21430;-92
2022/12/15 15:03:21;;;;;;;19.48;9.15;;;;;;;0.29;100.00;100649.98;1771306;79;20997;-91
2022/12/15 15:06:15;;;;;;;24.40;9.98;;;;;;;0.35;100.00;100646.48;1748640;79;21074;-91
2022/12/15 15:09:30;;;;;;;40.28;15.08;;;;;;;0.37;100.00;100640.39;1744762;80;21025;-91
2022/12/15 15:12:19;;;;;;;67.17;29.60;;;;;;;0.39;100.00;100645.02;1756194;81;21054;-92
2022/12/15 15:15:05;;;;;;;48.98;25.10;;;;;;;0.49;100.00;100646.46;1728546;80;21045;-92
2022/12/15 15:17:57;;;;;;;18.67;8.90;;;;;;;0.52;100.00;100657.64;1725025;80;21755;-92
2022/12/15 15:20:47;;;;;;;17.25;7.47;;;;;;;0.50;100.00;100657.02;1742397;80;21054;-92
2022/12/15 15:23:32;;;;;;;21.02;8.60;;;;;;;0.45;100.00;100670.79;1736270;80;21054;-91
2022/12/15 15:26:16;;;;;;;16.50;8.03;;;;;;;0.46;100.00;100677.28;1721169;81;21112;-92
2022/12/15 15:29:01;;;;;;;16.57;7.20;;;;;;;0.63;100.00;100669.62;1747553;80;21002;-90
2022/12/15 15:31:46;;;;;;;16.20;7.50;;;;;;;0.74;100.00;100669.00;1707902;83;21054;-92
2022/12/15 15:34:31;;;;;;;20.77;9.80;;;;;;;0.74;100.00;100667.66;1701624;83;21015;-91
2022/12/15 15:37:22;;;;;;;37.53;18.17;;;;;;;0.73;100.00;100665.98;1694956;83;21038;-92
2022/12/15 15:40:10;;;;;;;35.75;18.37;;;;;;;0.86;100.00;100671.33;1687871;83;21079;-90
2022/12/15 15:42:55;;;;;;;28.77;12.85;;;;;;;0.83;100.00;100670.41;1673843;84;21044;-90
2022/12/15 15:45:40;;;;;;;19.37;9.35;;;;;;;0.81;100.00;100676.52;1715957;82;20986;-91
2022/12/15 15:48:29;;;;;;;17.60;8.23;;;;;;;0.71;100.00;100677.99;1687807;83;21065;-91
2022/12/15 15:51:14;;;;;;;38.75;19.12;;;;;;;0.70;100.00;100677.70;1761996;80;21030;-91
2022/12/15 15:54:09;;;;;;;69.95;34.05;;;;;;;0.67;100.00;100673.56;1747915;80;21417;-90
2022/12/15 15:56:53;;;;;;;33.05;16.17;;;;;;;0.62;100.00;100673.36;1761995;81;21826;-88
2022/12/15 15:59:41;;;;;;;65.30;32.30;;;;;;;0.61;100.00;100673.03;1746112;81;21014;-88
2022/12/15 16:02:30;;;;;;;1999.90;999.90;;;;;;;0.60;100.00;100680.28;1745410;80;20986;-89
2022/12/15 16:05:16;;;;;;;25.92;12.10;;;;;;;0.61;100.00;100674.37;1762816;80;21048;-89
2022/12/15 16:08:02;;;;;;;28.57;11.08;;;;;;;0.69;100.00;100677.37;1767616;79;20968;-89
2022/12/15 16:10:47;;;;;;;14.65;7.12;;;;;;;0.66;100.00;100682.65;1730901;81;21503;-90
2022/12/15 16:13:32;;;;;;;23.65;9.93;;;;;;;0.66;100.00;100688.55;1739876;81;20978;-90
2022/12/15 16:16:19;;;;;;;22.32;10.05;;;;;;;0.62;100.00;100701.08;1739020;81;21041;-91
2022/12/15 16:19:04;;;;;;;46.98;15.95;;;;;;;0.64;100.00;100699.50;1733256;81;21014;-90
2022/12/15 16:21:50;;;;;;;62.78;21.48;;;;;;;0.62;100.00;100705.64;1711990;81;20986;-91
2022/12/15 16:24:35;;;;;;;16.67;7.78;;;;;;;0.47;100.00;100713.06;1723846;81;21022;-90
2022/12/15 16:27:20;;;;;;;20.30;8.60;;;;;;;0.46;100.00;100720.83;1692436;83;21049;-92
2022/12/15 16:30:18;;;;;;;20.37;8.35;;;;;;;0.49;100.00;100725.27;1739153;82;21004;-90
2022/12/15 16:33:04;;;;;;;17.20;7.80;;;;;;;0.48;100.00;100721.45;1729189;80;21022;-90
2022/12/15 16:35:49;;;;;;;18.57;7.45;;;;;;;0.48;100.00;100722.27;1700147;82;21011;-90
2022/12/15 16:38:34;;;;;;;25.02;9.70;;;;;;;0.48;100.00;100717.42;1730032;81;20975;-91
2022/12/15 16:41:22;;;;;;;20.27;8.80;;;;;;;0.52;100.00;100717.30;1696354;82;21039;-90
2022/12/15 16:44:10;;;;;;;22.60;9.70;;;;;;;0.49;100.00;100721.23;1696573;84;21019;-92
2022/12/15 16:46:55;;;;;;;18.50;9.43;;;;;;;0.49;100.00;100725.78;1696948;83;21074;-91
2022/12/15 16:49:40;;;;;;;27.75;13.32;;;;;;;0.49;100.00;100721.75;1720937;81;21515;-91
2022/12/15 16:52:25;;;;;;;27.05;12.28;;;;;;;0.49;100.00;100727.12;1737894;80;21001;-91
2022/12/15 16:55:23;;;;;;;19.87;9.75;;;;;;;0.47;100.00;100722.47;1731314;80;21389;-90
2022/12/15 16:58:13;;;;;;;20.10;8.93;;;;;;;0.45;100.00;100728.59;1696824;84;21043;-91
2022/12/15 17:00:58;;;;;;;22.45;10.30;;;;;;;0.47;100.00;100729.19;1696261;82;21052;-90
2022/12/15 17:03:43;;;;;;;22.32;9.83;;;;;;;0.50;100.00;100730.15;1676730;83;20985;-91
2022/12/15 17:06:27;;;;;;;27.75;14.33;;;;;;;0.49;100.00;100737.88;1736799;81;21033;-91
2022/12/15 17:09:21;;;;;;;18.48;9.75;;;;;;;0.48;100.00;100733.55;1724705;81;21526;-90
2022/12/15 17:12:16;;;;;;;23.95;9.98;;;;;;;0.46;100.00;100732.92;1744568;81;21120;-91
2022/12/15 17:15:01;;;;;;;18.52;9.73;;;;;;;0.45;100.00;100731.28;1688267;82;21043;-91
2022/12/15 17:17:46;;;;;;;24.45;10.30;;;;;;;0.47;100.00;100745.32;1736714;82;21389;-92
2022/12/15 17:20:31;;;;;;;22.45;10.48;;;;;;;0.46;100.00;100742.34;1729886;82;21618;-91
2022/12/15 17:23:18;;;;;;;22.60;9.75;;;;;;;0.48;100.00;100764.48;1733756;81;21003;-91
2022/12/15 17:26:03;;;;;;;23.42;11.93;;;;;;;0.43;100.00;100762.39;1726068;81;20982;-91
2022/12/15 17:28:48;;;;;;;27.77;10.85;;;;;;;0.43;100.00;100763.74;1728626;82;20997;-92
2022/12/15 17:31:32;;;;;;;22.90;11.65;;;;;;;0.42;100.00;100765.61;1702126;84;20918;-91
2022/12/15 17:34:30;;;;;;;24.65;11.38;;;;;;;0.43;100.00;100764.56;1703483;82;20999;-91
2022/12/15 17:37:17;;;;;;;24.55;11.88;;;;;;;0.46;100.00;100767.88;1733677;82;21054;-93
2022/12/15 17:40:07;;;;;;;22.07;12.07;;;;;;;0.50;100.00;100770.48;1701353;82;21481;-91
2022/12/15 17:42:51;;;;;;;24.52;11.73;;;;;;;0.53;100.00;100771.41;1740109;81;21034;-91
2022/12/15 17:45:36;;;;;;;21.48;11.03;;;;;;;0.52;100.00;100770.59;1727760;82;21427;-91
2022/12/15 17:48:22;;;;;;;32.78;15.83;;;;;;;0.51;100.00;100776.16;1693691;82;21032;-90
2022/12/15 17:51:16;;;;;;;28.50;14.25;;;;;;;0.52;100.00;100775.97;1732615;82;21629;-92
2022/12/15 17:54:01;;;;;;;32.05;14.07;;;;;;;0.50;100.00;100780.72;1738586;82;21035;-91
2022/12/15 17:56:46;;;;;;;27.90;13.00;;;;;;;0.49;100.00;100783.08;1733041;81;21003;-91
2022/12/15 17:59:31;;;;;;;26.25;12.73;;;;;;;0.51;100.00;100795.80;1727782;81;21050;-91
2022/12/15 18:02:15;;;;;;;22.93;11.50;;;;;;;0.53;100.00;100795.61;1704436;81;21364;-91
2022/12/15 18:05:00;;;;;;;23.65;11.22;;;;;;;0.53;100.00;100789.71;1694367;82;21045;-92
2022/12/15 18:07:49;;;;;;;17.12;9.55;;;;;;;0.54;100.00;100798.59;1722420;81;21022;-90
2022/12/15 18:10:36;;;;;;;22.37;10.28;;;;;;;0.57;100.00;100798.18;1745451;80;21442;-90
2022/12/15 18:13:28;;;;;;;20.00;9.85;;;;;;;0.58;100.00;100802.55;1767537;80;20967;-90
2022/12/15 18:16:13;;;;;;;21.70;9.60;;;;;;;0.60;100.00;100799.14;1763681;81;20971;-90
2022/12/15 18:18:59;;;;;;;20.97;10.55;;;;;;;0.58;100.00;100800.67;1733330;82;21042;-90
2022/12/15 18:21:43;;;;;;;29.27;12.60;;;;;;;0.60;100.00;100792.41;1750065;81;20986;-92
2022/12/15 18:24:30;;;;;;;26.73;12.90;;;;;;;0.65;100.00;100796.66;1706664;83;20991;-91
2022/12/15 18:27:26;;;;;;;27.82;15.53;;;;;;;0.63;100.00;100794.69;1726878;82;21042;-91
2022/12/15 18:30:17;;;;;;;29.10;15.32;;;;;;;0.62;100.00;100800.59;1713172;82;21022;-91
2022/12/15 18:33:03;;;;;;;30.85;16.40;;;;;;;0.62;100.00;100799.77;1706234;83;21441;-91
2022/12/15 18:35:49;;;;;;;29.02;15.18;;;;;;;0.64;100.00;100803.05;1729130;81;21084;-90
2022/12/15 18:38:34;;;;;;;32.50;15.45;;;;;;;0.66;100.00;100798.83;1739410;80;20979;-91
2022/12/15 18:41:19;;;;;;;28.23;15.32;;;;;;;0.63;100.00;100799.55;1739185;80;21019;-90
2022/12/15 20:03:17;;;;;;;41.70;17.85;;;;;;;-0.16;100.00;100818.14;1779101;78;28914;-91
2022/12/15 20:06:02;;;;;;;51.53;20.90;;;;;;;-0.08;100.00;100831.39;1741388;80;21034;-90
2022/12/15 20:08:51;;;;;;;66.70;23.38;;;;;;;0.03;100.00;100846.13;1744441;80;21009;-91
2022/12/15 20:11:37;;;;;;;62.50;25.15;;;;;;;0.13;100.00;100854.13;1704128;82;21012;-91
2022/12/15 20:14:31;;;;;;;61.40;25.88;;;;;;;0.30;100.00;100857.81;1740212;81;21004;-92
2022/12/15 20:17:19;;;;;;;40.17;19.45;;;;;;;0.42;100.00;100861.55;1741135;81;20997;-92
2022/12/15 20:20:04;;;;;;;42.38;17.45;;;;;;;0.48;100.00;100862.62;1735228;82;21026;-92
2022/12/15 20:22:52;;;;;;;36.80;17.62;;;;;;;0.60;100.00;100858.30;1715400;82;21014;-92
2022/12/15 20:25:37;;;;;;;37.60;16.95;;;;;;;0.71;100.00;100859.03;1702752;83;21074;-93
2022/12/15 20:28:26;;;;;;;37.65;15.93;;;;;;;0.90;100.00;100851.21;1710059;82;21540;-92
2022/12/15 20:31:14;;;;;;;33.90;15.35;;;;;;;1.01;100.00;100855.44;1733427;80;21047;-92
2022/12/15 20:33:58;;;;;;;31.52;14.43;;;;;;;1.12;100.00;100847.28;1711755;81;21008;-93
2022/12/15 20:36:43;;;;;;;31.60;13.95;;;;;;;1.18;100.00;100846.44;1725462;80;21005;-91
2022/12/15 20:39:28;;;;;;;27.70;12.68;;;;;;;1.17;100.00;100846.67;1686797;82;20995;-93
2022/12/15 20:42:19;;;;;;;33.35;15.28;;;;;;;1.20;100.00;100852.97;1667143;84;21026;-92
2022/12/15 20:45:05;;;;;;;32.93;14.87;;;;;;;1.24;100.00;100848.31;1686695;83;21026;-92
2022/12/15 20:47:52;;;;;;;35.43;16.80;;;;;;;1.27;100.00;100851.93;1687183;83;21046;-92
2022/12/15 20:50:41;;;;;;;38.33;18.98;;;;;;;1.24;100.00;100864.47;1740227;79;21919;-93
2022/12/15 20:53:26;;;;;;;36.48;17.12;;;;;;;1.21;100.00;100858.66;1747187;80;21443;-92
2022/12/15 20:56:10;;;;;;;38.42;18.00;;;;;;;1.18;100.00;100870.67;1703048;82;21541;-92
2022/12/15 20:58:56;;;;;;;38.95;18.92;;;;;;;1.16;100.00;100878.11;1708003;82;20992;-93
2022/12/15 21:01:45;;;;;;;32.73;17.20;;;;;;;1.14;100.00;100873.97;1733281;82;21034;-93
2022/12/15 21:04:31;;;;;;;30.23;14.25;;;;;;;1.12;100.00;100878.77;1710699;82;21446;-93
2022/12/15 21:07:16;;;;;;;33.67;15.80;;;;;;;1.15;100.00;100879.16;1693512;82;21007;-92
2022/12/15 21:10:01;;;;;;;34.88;16.23;;;;;;;1.13;100.00;100882.58;1683075;83;20995;-93
2022/12/15 21:12:47;;;;;;;32.98;15.30;;;;;;;1.12;100.00;100913.23;1719821;81;21031;-92
2022/12/15 21:15:33;;;;;;;27.37;13.83;;;;;;;1.02;100.00;100912.28;1743304;82;21027;-92
2022/12/15 21:18:18;;;;;;;33.28;15.60;;;;;;;0.99;100.00;100918.58;1714781;82;20990;-92
2022/12/15 21:21:05;;;;;;;34.70;15.32;;;;;;;0.99;100.00;100934.23;1731762;80;21036;-92
2022/12/15 21:23:50;;;;;;;34.80;15.80;;;;;;;1.00;100.00;100935.05;1737275;80;21248;-92
2022/12/15 21:26:35;;;;;;;35.78;16.70;;;;;;;0.95;100.00;100934.84;1724162;80;21502;-92
2022/12/15 21:29:22;;;;;;;39.15;17.98;;;;;;;0.98;100.00;100942.50;1756934;79;20999;-92
2022/12/15 21:32:06;;;;;;;37.45;19.05;;;;;;;0.96;100.00;100939.18;1719788;81;21022;-92
2022/12/15 21:34:51;;;;;;;40.78;18.62;;;;;;;1.02;100.00;100935.69;1730734;79;20943;-92
2022/12/15 21:37:35;;;;;;;48.05;21.00;;;;;;;1.03;100.00;100929.26;1717898;80;21026;-92
2022/12/15 21:40:27;;;;;;;46.80;20.97;;;;;;;1.04;100.00;100932.28;1750102;80;21061;-92
2022/12/15 21:43:12;;;;;;;47.85;19.25;;;;;;;1.11;100.00;100935.78;1708069;80;21054;-92
2022/12/15 21:45:58;;;;;;;34.63;16.97;;;;;;;1.01;100.00;100940.73;1701416;82;21065;-92
2022/12/15 21:51:50;;;;;;;30.55;15.13;;;;;;;1.05;100.00;100939.31;1707330;81;21002;-92
2022/12/15 21:54:35;;;;;;;29.02;13.72;;;;;;;1.13;100.00;100951.22;1696410;82;21390;-94
2022/12/15 21:57:20;;;;;;;28.50;13.83;;;;;;;1.12;100.00;100956.30;1698115;84;21047;-91